Breukelen, Netherlands
Current Conditions -  °F | °C
As of 2:25 AM on Monday 24 Nov 2014 (Local Time) from EHAM Reporting Station
Light Rain Light Rain  
Wind Chill: 45°   Ceiling: 2200
Heat Index: 48°   Visibility: 6mi
Dew Point: 46°   Wind: 7mph
Humidity: 93%   Direction: 310°NW
Pressure: 30.06"   Gusts: NA
Location:  52.17°N, 5°E
Report Text: EHAM 240125Z 31006KT 9999 -RA FEW011 BKN022 09/08 Q1018 NOSIG
Loading
Personal Weather Stations






























Interactive Weather Map New forecast layout! Learn more

10-Day Weather Forecast

Advertisements
Track Severe Weather on mobile